Time;durP1;ratioP1;P1;durP2;ratioP2;P2;SDS_P1;SDS_P2;PMS_P1;PMS_P2;Temp;Humidity;BMP_temperature;BMP_pressure;BME280_temperature;BME280_humidity;BME280_pressure;Samples;Min_cycle;Max_cycle;Signal;HPM_P1;HPM_P2
2023/08/23 00:00:39;;;;;;;2.90;1.80;;;;;;;;;;5060921;27;88541;-60
2023/08/23 00:03:07;;;;;;;1.83;1.70;;;;;;;;;;5061408;27;87916;-60
2023/08/23 00:05:36;;;;;;;2.90;1.67;;;;;;;;;;5061640;27;88385;-59
2023/08/23 00:08:05;;;;;;;2.03;1.83;;;;;;;;;;5061548;27;87837;-60
2023/08/23 00:10:34;;;;;;;3.13;2.33;;;;;;;;;;5061537;27;88553;-60
2023/08/23 00:13:02;;;;;;;5.70;2.00;;;;;;;;;;5061203;27;89248;-60
2023/08/23 00:15:30;;;;;;;4.93;1.80;;;;;;;;;;5060670;27;88776;-60
2023/08/23 00:18:03;;;;;;;2.07;1.70;;;;;;;;;;5061957;27;87631;-60
2023/08/23 00:20:31;;;;;;;2.23;1.60;;;;;;;;;;5060808;27;88525;-60
2023/08/23 00:22:59;;;;;;;1.80;1.37;;;;;;;;;;5061127;27;88260;-60
2023/08/23 00:25:28;;;;;;;2.27;1.50;;;;;;;;;;5061221;27;87730;-60
2023/08/23 00:27:56;;;;;;;2.13;1.57;;;;;;;;;;5061678;27;87348;-60
2023/08/23 00:30:41;;;;;;;2.60;2.00;;;;;;;;;;5061244;27;88661;-60
2023/08/23 00:33:11;;;;;;;2.30;1.60;;;;;;;;;;5060308;27;89041;-60
2023/08/23 00:35:39;;;;;;;2.10;1.70;;;;;;;;;;5060303;27;88971;-60
2023/08/23 00:38:08;;;;;;;2.57;1.57;;;;;;;;;;5061169;27;87545;-59
2023/08/23 00:40:37;;;;;;;1.63;1.20;;;;;;;;;;5059734;27;88362;-59
2023/08/23 00:43:07;;;;;;;1.83;1.10;;;;;;;;;;5059902;27;88039;-60
2023/08/23 00:45:36;;;;;;;1.60;1.13;;;;;;;;;;5059883;27;87717;-60
2023/08/23 00:48:05;;;;;;;3.60;1.67;;;;;;;;;;5061556;27;87505;-59
2023/08/23 00:50:36;;;;;;;1.67;1.27;;;;;;;;;;5061325;27;88453;-60
2023/08/23 00:53:05;;;;;;;1.20;1.10;;;;;;;;;;5061408;27;87446;-60
2023/08/23 00:55:33;;;;;;;2.07;1.50;;;;;;;;;;5060613;27;87854;-59
2023/08/23 00:58:02;;;;;;;3.63;1.13;;;;;;;;;;5059898;27;88820;-60
2023/08/23 01:00:31;;;;;;;2.70;1.73;;;;;;;;;;5060542;27;89675;-59
2023/08/23 01:02:59;;;;;;;1.40;1.10;;;;;;;;;;5060066;27;89320;-59
2023/08/23 01:05:31;;;;;;;2.40;1.33;;;;;;;;;;5060383;27;88767;-60
2023/08/23 01:08:02;;;;;;;1.23;1.13;;;;;;;;;;5060170;27;87581;-60
2023/08/23 01:10:33;;;;;;;2.47;1.33;;;;;;;;;;5059890;27;87427;-59
2023/08/23 01:13:03;;;;;;;2.77;1.27;;;;;;;;;;5061052;27;89165;-59
2023/08/23 01:15:33;;;;;;;1.50;1.30;;;;;;;;;;5060320;27;88851;-60
2023/08/23 01:18:03;;;;;;;2.33;1.87;;;;;;;;;;5059970;27;87512;-59
2023/08/23 01:20:31;;;;;;;1.40;1.00;;;;;;;;;;5060176;27;87387;-60
2023/08/23 01:23:07;;;;;;;1.50;1.20;;;;;;;;;;5059729;27;88978;-59
2023/08/23 01:25:38;;;;;;;1.17;1.07;;;;;;;;;;5061005;27;89693;-59
2023/08/23 01:28:06;;;;;;;1.67;1.20;;;;;;;;;;5064277;27;87558;-59
2023/08/23 01:30:35;;;;;;;1.43;1.33;;;;;;;;;;5063341;27;89729;-59
2023/08/23 01:33:05;;;;;;;1.30;1.20;;;;;;;;;;5063599;27;87998;-59
2023/08/23 01:35:34;;;;;;;1.33;0.90;;;;;;;;;;5063017;27;88931;-60
2023/08/23 01:38:02;;;;;;;1.30;1.10;;;;;;;;;;5063936;27;87529;-60
2023/08/23 01:40:32;;;;;;;1.23;1.00;;;;;;;;;;5062643;27;87485;-60
2023/08/23 01:43:01;;;;;;;1.37;1.03;;;;;;;;;;5062785;27;89323;-60
2023/08/23 01:45:29;;;;;;;2.00;1.30;;;;;;;;;;5063583;27;87345;-60
2023/08/23 01:48:00;;;;;;;0.80;0.80;;;;;;;;;;5062713;27;87883;-60
2023/08/23 01:50:30;;;;;;;1.50;1.10;;;;;;;;;;5063623;27;89411;-60
2023/08/23 01:52:58;;;;;;;0.80;0.80;;;;;;;;;;5063319;27;87302;-60
2023/08/23 01:55:27;;;;;;;1.23;0.93;;;;;;;;;;5063189;27;88810;-60
2023/08/23 01:57:57;;;;;;;0.90;0.90;;;;;;;;;;5063786;27;87632;-60
2023/08/23 02:00:26;;;;;;;1.73;0.97;;;;;;;;;;5064040;27;88451;-60
2023/08/23 02:02:56;;;;;;;1.63;1.00;;;;;;;;;;5062917;27;88412;-60
2023/08/23 02:05:25;;;;;;;0.90;0.80;;;;;;;;;;5062666;27;88873;-59
2023/08/23 02:07:55;;;;;;;0.80;0.80;;;;;;;;;;5063285;27;87271;-60
2023/08/23 02:10:24;;;;;;;1.57;1.00;;;;;;;;;;5062535;27;87293;-59
2023/08/23 02:12:52;;;;;;;1.37;1.17;;;;;;;;;;5062877;27;89038;-59
2023/08/23 02:15:22;;;;;;;2.70;1.50;;;;;;;;;;5063078;27;88705;-61
2023/08/23 02:17:51;;;;;;;3.30;1.70;;;;;;;;;;5063679;27;87617;-60
2023/08/23 02:20:19;;;;;;;2.77;1.93;;;;;;;;;;5063468;27;89757;-60
2023/08/23 02:22:49;;;;;;;3.63;1.90;;;;;;;;;;5062993;27;89142;-60
2023/08/23 02:25:18;;;;;;;2.87;2.00;;;;;;;;;;5062335;27;88818;-60
2023/08/23 02:27:47;;;;;;;2.83;1.80;;;;;;;;;;5062719;27;87369;-60
2023/08/23 02:30:16;;;;;;;3.47;1.63;;;;;;;;;;5063288;27;88562;-60
2023/08/23 02:32:46;;;;;;;4.33;2.70;;;;;;;;;;5062747;27;89174;-60
2023/08/23 02:35:14;;;;;;;3.70;2.10;;;;;;;;;;5063149;27;88896;-60
2023/08/23 02:37:43;;;;;;;2.93;1.97;;;;;;;;;;5061267;27;87972;-60
2023/08/23 02:40:13;;;;;;;2.60;1.80;;;;;;;;;;5062117;27;88607;-60
2023/08/23 02:42:41;;;;;;;3.40;2.70;;;;;;;;;;5061619;27;89107;-60
2023/08/23 02:45:10;;;;;;;4.37;2.90;;;;;;;;;;5062301;27;88827;-60
2023/08/23 02:47:38;;;;;;;3.80;2.60;;;;;;;;;;5062789;27;87263;-60
2023/08/23 02:50:08;;;;;;;5.67;3.33;;;;;;;;;;5062095;27;88574;-60
2023/08/23 02:52:37;;;;;;;4.63;3.20;;;;;;;;;;5061772;27;87845;-60
2023/08/23 02:55:07;;;;;;;6.67;3.60;;;;;;;;;;5062478;27;88846;-60
2023/08/23 02:57:37;;;;;;;7.20;3.57;;;;;;;;;;5062765;27;87495;-60
2023/08/23 03:00:06;;;;;;;4.93;3.30;;;;;;;;;;5062399;27;88598;-60
2023/08/23 03:02:34;;;;;;;5.13;3.67;;;;;;;;;;5061449;27;89985;-60
2023/08/23 03:05:03;;;;;;;8.57;4.33;;;;;;;;;;5062232;27;89735;-60
2023/08/23 03:07:32;;;;;;;8.27;4.77;;;;;;;;;;5062602;27;87693;-60
2023/08/23 03:10:01;;;;;;;10.00;5.30;;;;;;;;;;5061562;27;88600;-60
2023/08/23 03:12:29;;;;;;;8.90;4.33;;;;;;;;;;5062093;27;88014;-60
2023/08/23 03:14:58;;;;;;;8.33;5.03;;;;;;;;;;5061435;27;87714;-60
2023/08/23 03:17:27;;;;;;;6.13;5.33;;;;;;;;;;5061346;27;87459;-59
2023/08/23 03:19:57;;;;;;;8.83;5.63;;;;;;;;;;5039318;27;89826;-60
2023/08/23 03:22:26;;;;;;;7.23;5.17;;;;;;;;;;5038848;28;87913;-60
2023/08/23 03:24:56;;;;;;;9.80;6.10;;;;;;;;;;5038451;28;88698;-60
2023/08/23 03:27:25;;;;;;;8.80;6.20;;;;;;;;;;5038784;28;88383;-60
2023/08/23 03:29:54;;;;;;;10.77;7.13;;;;;;;;;;5038670;28;88553;-60
2023/08/23 03:32:22;;;;;;;8.87;5.50;;;;;;;;;;5038636;28;88609;-60
2023/08/23 03:34:50;;;;;;;10.80;6.60;;;;;;;;;;5038507;27;87522;-60
2023/08/23 03:37:19;;;;;;;11.17;6.67;;;;;;;;;;5038355;27;87811;-60
2023/08/23 03:39:47;;;;;;;9.97;6.93;;;;;;;;;;5045384;27;90111;-59
2023/08/23 03:42:19;;;;;;;10.50;6.23;;;;;;;;;;5058358;27;88977;-60
2023/08/23 03:44:48;;;;;;;10.23;6.27;;;;;;;;;;5058842;27;87570;-60
2023/08/23 03:47:16;;;;;;;8.37;6.23;;;;;;;;;;5058465;27;87546;-60
2023/08/23 03:49:44;;;;;;;7.63;5.60;;;;;;;;;;5058516;27;88550;-60
2023/08/23 03:52:13;;;;;;;9.67;5.70;;;;;;;;;;5057593;27;89069;-60
2023/08/23 03:54:43;;;;;;;8.10;5.67;;;;;;;;;;5058484;27;89116;-60
2023/08/23 03:57:11;;;;;;;7.17;5.27;;;;;;;;;;5058887;27;87551;-60
2023/08/23 03:59:42;;;;;;;10.03;6.17;;;;;;;;;;5057712;27;89673;-60
2023/08/23 04:02:12;;;;;;;9.30;6.30;;;;;;;;;;5058541;27;89112;-61
2023/08/23 04:04:42;;;;;;;10.80;6.07;;;;;;;;;;5058142;27;87732;-60
2023/08/23 04:07:13;;;;;;;6.40;5.20;;;;;;;;;;5057875;27;87907;-60
2023/08/23 04:09:43;;;;;;;10.13;6.10;;;;;;;;;;5058240;27;89783;-60
2023/08/23 04:12:11;;;;;;;11.00;6.57;;;;;;;;;;5056199;27;88962;-60
2023/08/23 04:14:39;;;;;;;8.17;5.93;;;;;;;;;;5055291;27;87760;-60
2023/08/23 04:17:09;;;;;;;7.70;5.13;;;;;;;;;;5060696;27;87937;-60
2023/08/23 04:19:38;;;;;;;7.40;5.17;;;;;;;;;;5060665;27;88538;-60
2023/08/23 04:22:07;;;;;;;9.70;6.00;;;;;;;;;;5060499;27;89120;-60
2023/08/23 04:24:35;;;;;;;7.13;4.80;;;;;;;;;;5060984;27;87421;-60
2023/08/23 04:27:05;;;;;;;7.70;5.30;;;;;;;;;;5061052;27;87639;-60
2023/08/23 04:29:34;;;;;;;7.17;5.17;;;;;;;;;;5060369;27;88480;-60
2023/08/23 04:32:09;;;;;;;6.80;4.70;;;;;;;;;;5061471;27;88061;-60
2023/08/23 04:34:39;;;;;;;10.50;5.30;;;;;;;;;;5061284;27;87719;-60
2023/08/23 04:37:08;;;;;;;8.73;4.57;;;;;;;;;;5061068;27;87646;-60
2023/08/23 04:39:37;;;;;;;6.17;4.60;;;;;;;;;;5060953;27;88642;-60
2023/08/23 04:42:06;;;;;;;8.07;4.50;;;;;;;;;;5058884;27;89044;-60
2023/08/23 04:44:34;;;;;;;5.37;4.57;;;;;;;;;;5060661;27;87400;-60
2023/08/23 04:47:02;;;;;;;7.37;4.70;;;;;;;;;;5060212;27;88413;-60
2023/08/23 04:49:31;;;;;;;5.27;4.10;;;;;;;;;;5060024;27;88590;-60
2023/08/23 04:52:00;;;;;;;8.03;4.43;;;;;;;;;;5060881;27;89022;-60
2023/08/23 04:54:29;;;;;;;6.77;4.30;;;;;;;;;;5059919;27;88809;-60
2023/08/23 04:56:57;;;;;;;4.90;4.07;;;;;;;;;;5060523;27;87422;-60
2023/08/23 04:59:27;;;;;;;7.27;4.50;;;;;;;;;;5061143;27;88586;-60
2023/08/23 05:01:55;;;;;;;5.10;3.80;;;;;;;;;;5060692;27;88015;-60
2023/08/23 05:04:24;;;;;;;4.80;3.53;;;;;;;;;;5060893;27;87895;-60
2023/08/23 05:06:52;;;;;;;4.97;3.63;;;;;;;;;;5060603;27;88002;-60
2023/08/23 05:09:22;;;;;;;4.53;3.27;;;;;;;;;;5059744;27;89525;-60
2023/08/23 05:11:50;;;;;;;4.53;3.33;;;;;;;;;;5059875;27;88030;-60
2023/08/23 05:14:22;;;;;;;7.20;3.47;;;;;;;;;;5060153;27;89110;-60
2023/08/23 05:16:51;;;;;;;4.53;3.40;;;;;;;;;;5060290;27;87672;-60
2023/08/23 05:19:20;;;;;;;5.07;3.07;;;;;;;;;;5060197;27;88602;-60
2023/08/23 05:21:49;;;;;;;4.10;3.53;;;;;;;;;;5059283;27;89028;-61
2023/08/23 05:24:18;;;;;;;4.57;3.27;;;;;;;;;;5061028;27;87344;-60
2023/08/23 05:26:48;;;;;;;3.70;2.70;;;;;;;;;;5060998;27;87619;-60
2023/08/23 05:29:16;;;;;;;3.90;2.80;;;;;;;;;;5059979;27;89661;-60
2023/08/23 05:31:45;;;;;;;4.87;3.47;;;;;;;;;;5058895;27;89065;-60
2023/08/23 05:34:13;;;;;;;4.83;3.53;;;;;;;;;;5060126;27;88738;-60
2023/08/23 05:36:41;;;;;;;4.33;2.43;;;;;;;;;;5060664;27;87237;-60
2023/08/23 05:39:11;;;;;;;4.33;2.77;;;;;;;;;;5059794;27;88502;-60
2023/08/23 05:41:40;;;;;;;4.47;3.03;;;;;;;;;;5058935;27;88068;-60
2023/08/23 05:44:10;;;;;;;3.20;2.60;;;;;;;;;;5060599;27;87332;-60
2023/08/23 05:46:39;;;;;;;6.10;2.77;;;;;;;;;;5060637;27;87638;-61
2023/08/23 05:49:07;;;;;;;4.57;2.93;;;;;;;;;;5059828;27;88844;-60
2023/08/23 05:51:35;;;;;;;4.13;3.07;;;;;;;;;;5059744;27;88156;-60
2023/08/23 05:54:04;;;;;;;3.23;2.60;;;;;;;;;;5058875;27;88774;-60
2023/08/23 05:56:32;;;;;;;3.20;2.20;;;;;;;;;;5059002;27;88505;-60
2023/08/23 05:59:00;;;;;;;5.00;2.60;;;;;;;;;;5060211;27;89673;-60
2023/08/23 06:01:31;;;;;;;2.73;2.20;;;;;;;;;;5058446;27;88029;-60
2023/08/23 06:03:59;;;;;;;2.97;1.97;;;;;;;;;;5059318;27;87674;-60
2023/08/23 06:06:29;;;;;;;3.40;2.10;;;;;;;;;;5059926;27;87782;-60
2023/08/23 06:08:57;;;;;;;3.00;2.20;;;;;;;;;;5059678;27;89524;-60
2023/08/23 06:11:27;;;;;;;1.87;1.67;;;;;;;;;;5059023;27;88134;-60
2023/08/23 06:13:57;;;;;;;3.23;2.10;;;;;;;;;;5062561;27;87710;-60
2023/08/23 06:16:26;;;;;;;3.10;1.90;;;;;;;;;;5062787;27;87528;-60
2023/08/23 06:18:55;;;;;;;2.50;2.03;;;;;;;;;;5063042;27;88881;-60
2023/08/23 06:21:25;;;;;;;3.00;1.80;;;;;;;;;;5062069;27;90105;-60
2023/08/23 06:23:53;;;;;;;3.90;2.10;;;;;;;;;;5062717;27;89997;-60
2023/08/23 06:26:23;;;;;;;3.07;1.93;;;;;;;;;;5063292;27;87794;-60
2023/08/23 06:28:51;;;;;;;1.70;1.60;;;;;;;;;;5062760;27;88551;-60
2023/08/23 06:31:20;;;;;;;2.77;1.70;;;;;;;;;;5062102;27;88138;-60
2023/08/23 06:33:48;;;;;;;2.70;1.87;;;;;;;;;;5062681;27;87851;-60
2023/08/23 06:36:19;;;;;;;1.63;1.40;;;;;;;;;;5063294;27;87511;-60
2023/08/23 06:38:48;;;;;;;2.10;1.87;;;;;;;;;;5063019;27;89507;-60
2023/08/23 06:41:16;;;;;;;3.67;1.70;;;;;;;;;;5061659;27;88109;-59
2023/08/23 06:43:50;;;;;;;3.33;1.50;;;;;;;;;;5061907;27;87813;-60
2023/08/23 06:46:19;;;;;;;1.80;1.53;;;;;;;;;;5062956;27;87932;-60
2023/08/23 06:48:47;;;;;;;3.33;1.60;;;;;;;;;;5062469;27;88752;-60
2023/08/23 06:51:17;;;;;;;2.00;1.60;;;;;;;;;;5062381;27;89027;-60
2023/08/23 06:53:46;;;;;;;2.70;1.13;;;;;;;;;;5062398;27;88800;-60
2023/08/23 06:56:17;;;;;;;2.40;1.70;;;;;;;;;;5062926;27;87598;-60
2023/08/23 06:58:46;;;;;;;1.80;1.40;;;;;;;;;;5061948;27;88564;-59
2023/08/23 07:01:16;;;;;;;1.33;1.23;;;;;;;;;;5062003;27;88931;-60
2023/08/23 07:03:44;;;;;;;1.53;1.13;;;;;;;;;;5062060;27;88900;-59
2023/08/23 07:06:13;;;;;;;3.70;1.30;;;;;;;;;;5062372;27;87664;-60
2023/08/23 07:08:41;;;;;;;1.33;1.20;;;;;;;;;;5061489;27;89583;-59
2023/08/23 07:11:11;;;;;;;3.30;1.50;;;;;;;;;;5061461;27;89020;-60
2023/08/23 07:13:39;;;;;;;1.33;1.17;;;;;;;;;;5062357;27;88666;-59
2023/08/23 07:16:08;;;;;;;2.00;1.60;;;;;;;;;;5061964;27;87719;-60
2023/08/23 07:18:36;;;;;;;3.40;1.67;;;;;;;;;;5061613;27;88754;-59
2023/08/23 07:21:05;;;;;;;2.17;1.40;;;;;;;;;;5062083;27;89079;-59
2023/08/23 07:23:34;;;;;;;3.40;1.77;;;;;;;;;;5060790;27;87814;-60
2023/08/23 07:26:03;;;;;;;2.77;1.87;;;;;;;;;;5062102;27;87567;-59
2023/08/23 07:28:32;;;;;;;2.00;1.67;;;;;;;;;;5062150;27;88593;-60
2023/08/23 07:31:01;;;;;;;2.20;1.30;;;;;;;;;;5061741;27;87562;-59
2023/08/23 07:33:29;;;;;;;1.97;1.57;;;;;;;;;;5061374;27;87319;-60
2023/08/23 07:35:59;;;;;;;1.87;1.53;;;;;;;;;;5061539;27;87979;-60
2023/08/23 07:38:28;;;;;;;5.13;1.67;;;;;;;;;;5062126;27;88545;-59
2023/08/23 07:40:59;;;;;;;1.63;1.40;;;;;;;;;;5060613;27;89164;-60
2023/08/23 07:43:28;;;;;;;1.67;1.40;;;;;;;;;;5061033;27;88489;-60
2023/08/23 07:45:58;;;;;;;2.17;1.87;;;;;;;;;;5061844;27;87691;-63
2023/08/23 07:48:26;;;;;;;4.90;2.50;;;;;;;;;;5061905;27;88448;-61
2023/08/23 07:50:56;;;;;;;8.20;3.90;;;;;;;;;;5061342;27;88510;-61
2023/08/23 07:53:24;;;;;;;3.83;2.37;;;;;;;;;;5061752;27;87920;-59
2023/08/23 07:55:53;;;;;;;3.10;1.97;;;;;;;;;;5061252;27;87336;-60
2023/08/23 07:58:21;;;;;;;5.40;2.57;;;;;;;;;;5061224;27;88567;-59
2023/08/23 08:00:50;;;;;;;2.97;2.07;;;;;;;;;;5060186;27;87964;-59
2023/08/23 08:03:20;;;;;;;4.83;2.20;;;;;;;;;;5060579;27;88836;-59
2023/08/23 08:05:48;;;;;;;1.87;1.70;;;;;;;;;;5061742;27;87500;-59
2023/08/23 08:08:17;;;;;;;5.07;2.73;;;;;;;;;;5061761;27;89591;-59
2023/08/23 08:10:46;;;;;;;2.17;1.77;;;;;;;;;;5061187;27;87990;-59
2023/08/23 08:13:14;;;;;;;2.27;1.73;;;;;;;;;;5060805;27;87760;-59
2023/08/23 08:15:44;;;;;;;2.30;1.83;;;;;;;;;;5061245;27;87589;-59
2023/08/23 08:18:14;;;;;;;4.10;2.17;;;;;;;;;;5061868;27;88540;-59
2023/08/23 08:20:44;;;;;;;2.37;1.90;;;;;;;;;;5061559;27;88925;-59
2023/08/23 08:23:14;;;;;;;2.73;2.23;;;;;;;;;;5060600;27;87337;-59
2023/08/23 08:25:42;;;;;;;6.23;2.53;;;;;;;;;;5060411;27;87991;-59
2023/08/23 08:28:13;;;;;;;2.50;2.13;;;;;;;;;;5061042;27;89714;-59
2023/08/23 08:30:42;;;;;;;3.23;2.07;;;;;;;;;;5061240;27;88042;-59
2023/08/23 08:33:11;;;;;;;3.40;2.13;;;;;;;;;;5060983;27;88683;-59
2023/08/23 08:35:39;;;;;;;7.40;2.40;;;;;;;;;;5060216;27;87604;-59
2023/08/23 08:38:09;;;;;;;2.87;1.93;;;;;;;;;;5060984;27;89775;-59
2023/08/23 08:40:38;;;;;;;4.53;1.90;;;;;;;;;;5059563;27;91019;-60
2023/08/23 08:43:10;;;;;;;3.60;1.80;;;;;;;;;;5060014;27;87488;-59
2023/08/23 08:45:39;;;;;;;2.97;2.17;;;;;;;;;;5061278;27;87541;-59
2023/08/23 08:48:07;;;;;;;4.13;1.63;;;;;;;;;;5060587;27;88449;-59
2023/08/23 08:50:36;;;;;;;3.87;2.03;;;;;;;;;;5059996;27;90374;-60
2023/08/23 08:53:06;;;;;;;5.10;2.00;;;;;;;;;;5059966;27;87712;-60
2023/08/23 08:55:35;;;;;;;3.47;2.03;;;;;;;;;;5059939;27;87523;-59
2023/08/23 08:58:04;;;;;;;3.53;1.73;;;;;;;;;;5060472;27;88515;-59
2023/08/23 09:00:33;;;;;;;2.47;1.87;;;;;;;;;;5060883;27;89384;-59
2023/08/23 09:03:02;;;;;;;3.23;2.20;;;;;;;;;;5060571;27;88476;-59
2023/08/23 09:05:30;;;;;;;3.03;2.27;;;;;;;;;;5060231;27;87488;-59
2023/08/23 09:08:00;;;;;;;5.73;1.87;;;;;;;;;;5060909;27;88486;-59
2023/08/23 09:10:28;;;;;;;2.53;2.10;;;;;;;;;;5060609;27;88057;-59
2023/08/23 09:12:58;;;;;;;2.70;1.30;;;;;;;;;;5060708;27;88770;-59
2023/08/23 09:15:26;;;;;;;2.47;2.03;;;;;;;;;;5060691;27;87870;-59
2023/08/23 09:17:55;;;;;;;3.23;1.67;;;;;;;;;;5060421;27;88421;-59
2023/08/23 09:20:24;;;;;;;2.03;1.60;;;;;;;;;;5059625;27;88248;-59
2023/08/23 09:22:52;;;;;;;1.87;1.60;;;;;;;;;;5060596;27;88837;-59
2023/08/23 09:25:23;;;;;;;5.67;2.10;;;;;;;;;;5060783;27;87663;-60
2023/08/23 09:27:53;;;;;;;1.63;1.53;;;;;;;;;;5060101;27;89720;-59
2023/08/23 09:30:26;;;;;;;2.20;1.60;;;;;;;;;;5060615;27;87760;-59
2023/08/23 09:32:54;;;;;;;3.53;2.10;;;;;;;;;;5059980;27;88343;-59
2023/08/23 09:35:23;;;;;;;2.57;1.80;;;;;;;;;;5060581;27;87540;-59
2023/08/23 09:37:51;;;;;;;5.30;2.00;;;;;;;;;;5060213;27;88611;-59
2023/08/23 09:40:20;;;;;;;3.10;2.00;;;;;;;;;;5059303;27;89064;-59
2023/08/23 09:42:49;;;;;;;2.23;1.83;;;;;;;;;;5059022;27;88558;-60
2023/08/23 09:45:19;;;;;;;3.20;2.17;;;;;;;;;;5060372;27;87535;-59
2023/08/23 09:47:51;;;;;;;2.37;1.50;;;;;;;;;;5063172;27;88826;-59
2023/08/23 09:50:21;;;;;;;3.07;1.80;;;;;;;;;;5063187;27;87300;-59
2023/08/23 09:52:51;;;;;;;3.13;1.90;;;;;;;;;;5063355;27;87703;-60
2023/08/23 09:55:20;;;;;;;1.87;1.40;;;;;;;;;;5063918;27;87586;-59
2023/08/23 09:57:48;;;;;;;2.87;1.70;;;;;;;;;;5063371;27;89700;-59
2023/08/23 10:00:18;;;;;;;3.10;1.90;;;;;;;;;;5063052;27;88000;-59
2023/08/23 10:02:46;;;;;;;1.83;1.63;;;;;;;;;;5063562;27;88762;-59
2023/08/23 10:05:18;;;;;;;2.17;1.67;;;;;;;;;;5062356;27;87660;-59
2023/08/23 10:07:46;;;;;;;3.37;1.47;;;;;;;;;;5063125;27;88553;-59
2023/08/23 10:10:15;;;;;;;1.70;1.53;;;;;;;;;;5062561;27;89122;-59
2023/08/23 10:12:45;;;;;;;1.97;1.67;;;;;;;;;;5063072;27;88778;-59
2023/08/23 10:15:13;;;;;;;1.93;1.70;;;;;;;;;;5063576;27;87277;-59
2023/08/23 10:17:42;;;;;;;2.17;1.70;;;;;;;;;;5062780;27;89574;-59
2023/08/23 10:20:10;;;;;;;1.97;1.60;;;;;;;;;;5062942;27;88024;-59
2023/08/23 10:22:40;;;;;;;2.37;1.67;;;;;;;;;;5062654;27;87751;-59
2023/08/23 10:25:16;;;;;;;1.97;1.30;;;;;;;;;;5062901;27;87691;-59
2023/08/23 10:27:46;;;;;;;2.00;1.43;;;;;;;;;;5062792;27;88858;-59
2023/08/23 10:30:23;;;;;;;2.77;1.60;;;;;;;;;;5062719;27;89016;-59
2023/08/23 10:32:52;;;;;;;1.80;1.20;;;;;;;;;;5063162;27;87544;-59
2023/08/23 10:35:22;;;;;;;2.27;1.80;;;;;;;;;;5063148;27;87723;-59
2023/08/23 10:37:52;;;;;;;1.30;1.20;;;;;;;;;;5062614;27;89182;-60
2023/08/23 10:40:21;;;;;;;1.67;1.30;;;;;;;;;;5062577;27;88025;-60
2023/08/23 10:42:51;;;;;;;2.27;1.60;;;;;;;;;;5062024;27;88805;-59
2023/08/23 10:45:20;;;;;;;1.57;1.27;;;;;;;;;;5063270;27;87544;-59
2023/08/23 10:47:51;;;;;;;2.63;1.50;;;;;;;;;;5062963;27;88569;-59
2023/08/23 10:50:20;;;;;;;2.97;1.30;;;;;;;;;;5062895;27;87481;-59
2023/08/23 10:52:49;;;;;;;2.53;1.30;;;;;;;;;;5061746;27;87698;-59
2023/08/23 10:55:19;;;;;;;3.17;1.50;;;;;;;;;;5061415;27;87841;-59
2023/08/23 10:57:48;;;;;;;2.03;1.40;;;;;;;;;;5061094;27;88625;-59
2023/08/23 11:00:17;;;;;;;2.57;1.17;;;;;;;;;;5062104;27;87795;-59
2023/08/23 11:02:46;;;;;;;2.23;1.50;;;;;;;;;;5062236;27;88624;-59
2023/08/23 11:05:15;;;;;;;2.57;1.40;;;;;;;;;;5061831;27;87599;-60
2023/08/23 11:07:43;;;;;;;1.90;1.60;;;;;;;;;;5062837;27;89681;-59
2023/08/23 11:10:12;;;;;;;1.73;1.10;;;;;;;;;;5062138;27;87872;-59
2023/08/23 11:12:41;;;;;;;2.67;1.30;;;;;;;;;;5062503;27;87799;-59
2023/08/23 11:15:10;;;;;;;2.23;1.40;;;;;;;;;;5063145;27;87302;-60
2023/08/23 11:17:39;;;;;;;2.13;1.20;;;;;;;;;;5062393;27;89691;-59
2023/08/23 11:20:10;;;;;;;1.63;1.30;;;;;;;;;;5061666;27;89173;-59
2023/08/23 11:22:38;;;;;;;2.73;1.63;;;;;;;;;;5062400;27;88755;-59
2023/08/23 11:25:07;;;;;;;2.03;1.20;;;;;;;;;;5062981;27;87634;-59
2023/08/23 11:27:35;;;;;;;1.40;1.13;;;;;;;;;;5062992;27;90247;-59
2023/08/23 11:30:06;;;;;;;1.70;1.30;;;;;;;;;;5062288;27;87871;-59
2023/08/23 11:32:34;;;;;;;2.10;1.20;;;;;;;;;;5061000;27;87750;-59
2023/08/23 11:35:05;;;;;;;1.50;1.27;;;;;;;;;;5061534;27;87591;-59
2023/08/23 11:37:33;;;;;;;1.47;1.30;;;;;;;;;;5061920;27;89473;-59
2023/08/23 11:40:07;;;;;;;2.77;1.10;;;;;;;;;;5061812;27;88977;-59
2023/08/23 11:42:36;;;;;;;3.57;1.50;;;;;;;;;;5059629;27;88862;-60
2023/08/23 11:45:06;;;;;;;1.30;1.20;;;;;;;;;;5061810;27;87767;-59
2023/08/23 11:47:36;;;;;;;1.70;1.60;;;;;;;;;;5062304;27;89607;-59
2023/08/23 11:50:07;;;;;;;1.73;1.40;;;;;;;;;;5061827;27;88236;-59
2023/08/23 11:52:36;;;;;;;2.07;1.40;;;;;;;;;;5061148;27;88857;-59
2023/08/23 11:55:05;;;;;;;1.53;0.93;;;;;;;;;;5061516;27;87657;-59
2023/08/23 11:57:32;;;;;;;2.73;1.33;;;;;;;;;;5061112;27;89563;-59
2023/08/23 12:00:01;;;;;;;1.70;1.20;;;;;;;;;;5061324;27;89104;-59
2023/08/23 12:02:31;;;;;;;1.93;1.37;;;;;;;;;;5061576;27;87777;-59
2023/08/23 12:05:01;;;;;;;1.07;0.97;;;;;;;;;;5061687;27;87639;-59
2023/08/23 12:07:29;;;;;;;1.20;1.10;;;;;;;;;;5060968;27;89824;-59
2023/08/23 12:09:58;;;;;;;1.47;1.13;;;;;;;;;;5060297;27;88944;-59
2023/08/23 12:12:26;;;;;;;1.93;1.10;;;;;;;;;;5061291;27;88640;-59
2023/08/23 12:14:55;;;;;;;1.10;0.83;;;;;;;;;;5062084;27;87636;-59
2023/08/23 12:17:23;;;;;;;1.53;1.13;;;;;;;;;;5060740;27;89609;-59
2023/08/23 12:19:53;;;;;;;2.13;0.90;;;;;;;;;;5061298;27;89044;-60
2023/08/23 12:22:21;;;;;;;1.27;1.17;;;;;;;;;;5061084;27;87329;-59
2023/08/23 12:24:50;;;;;;;1.07;0.97;;;;;;;;;;5061772;27;87624;-59
2023/08/23 12:27:18;;;;;;;0.87;0.83;;;;;;;;;;5060604;27;88511;-59
2023/08/23 12:29:47;;;;;;;1.63;1.10;;;;;;;;;;5060905;27;89075;-59
2023/08/23 12:32:16;;;;;;;2.00;0.80;;;;;;;;;;5061101;27;87445;-59
2023/08/23 12:34:44;;;;;;;1.33;0.90;;;;;;;;;;5060233;27;87797;-59
2023/08/23 12:37:14;;;;;;;1.13;1.03;;;;;;;;;;5060760;27;89558;-59
2023/08/23 12:39:44;;;;;;;1.27;1.03;;;;;;;;;;5060678;27;87534;-59
2023/08/23 12:42:12;;;;;;;1.23;1.13;;;;;;;;;;5059534;27;87722;-59
2023/08/23 12:44:40;;;;;;;0.90;0.80;;;;;;;;;;5061688;27;87449;-59
2023/08/23 12:47:09;;;;;;;1.00;0.90;;;;;;;;;;5060688;27;89601;-59
2023/08/23 12:49:38;;;;;;;2.47;0.80;;;;;;;;;;5060483;27;87984;-59
2023/08/23 12:52:09;;;;;;;1.43;0.70;;;;;;;;;;5060342;27;88833;-59
2023/08/23 12:54:38;;;;;;;0.97;0.87;;;;;;;;;;5061088;27;87581;-59
2023/08/23 12:57:07;;;;;;;0.80;0.80;;;;;;;;;;5061088;27;89561;-60
2023/08/23 12:59:35;;;;;;;2.00;1.03;;;;;;;;;;5060455;27;89131;-59
2023/08/23 13:02:03;;;;;;;1.43;0.80;;;;;;;;;;5060729;27;89721;-60
2023/08/23 13:04:32;;;;;;;3.87;0.80;;;;;;;;;;5061279;27;87612;-59
2023/08/23 13:07:00;;;;;;;2.30;0.83;;;;;;;;;;5060973;27;88339;-59
2023/08/23 13:09:29;;;;;;;2.00;0.70;;;;;;;;;;5060350;27;89096;-59
2023/08/23 13:11:59;;;;;;;0.70;0.70;;;;;;;;;;5061174;27;87757;-59
2023/08/23 13:14:27;;;;;;;0.70;0.70;;;;;;;;;;5061158;27;87648;-59
2023/08/23 13:16:55;;;;;;;1.93;0.73;;;;;;;;;;5060117;27;89535;-60
2023/08/23 13:19:25;;;;;;;1.10;0.67;;;;;;;;;;5060233;27;89003;-60
2023/08/23 13:21:54;;;;;;;0.63;0.63;;;;;;;;;;5062401;27;87730;-60
2023/08/23 13:24:22;;;;;;;1.30;1.00;;;;;;;;;;5063553;27;87647;-59
2023/08/23 13:26:51;;;;;;;0.70;0.70;;;;;;;;;;5063502;27;88530;-59
2023/08/23 13:29:22;;;;;;;1.43;1.00;;;;;;;;;;5064053;27;88065;-59
2023/08/23 13:31:51;;;;;;;0.97;0.87;;;;;;;;;;5063854;27;87778;-59
2023/08/23 13:34:20;;;;;;;2.87;0.60;;;;;;;;;;5064004;27;87512;-60
2023/08/23 13:36:48;;;;;;;1.00;0.70;;;;;;;;;;5063933;27;88468;-60
2023/08/23 13:39:19;;;;;;;0.60;0.60;;;;;;;;;;5064046;27;88030;-60
2023/08/23 13:41:50;;;;;;;1.23;0.70;;;;;;;;;;5063702;27;88963;-59
2023/08/23 13:44:18;;;;;;;1.20;0.97;;;;;;;;;;5064252;27;87683;-60
2023/08/23 13:46:50;;;;;;;1.27;0.90;;;;;;;;;;5063488;27;89651;-60
2023/08/23 13:49:18;;;;;;;0.80;0.80;;;;;;;;;;5063214;27;90085;-60
2023/08/23 13:51:47;;;;;;;0.63;0.53;;;;;;;;;;5063318;27;88859;-60
2023/08/23 13:54:17;;;;;;;0.97;0.70;;;;;;;;;;5063933;27;87511;-60
2023/08/23 13:56:45;;;;;;;0.73;0.57;;;;;;;;;;5063521;27;89847;-60
2023/08/23 13:59:13;;;;;;;1.13;0.83;;;;;;;;;;5063307;27;88082;-60
2023/08/23 14:01:42;;;;;;;0.60;0.60;;;;;;;;;;5063086;27;87569;-60
2023/08/23 14:04:12;;;;;;;0.97;0.60;;;;;;;;;;5063535;27;87640;-60
2023/08/23 14:06:40;;;;;;;1.60;0.90;;;;;;;;;;5063174;27;88795;-59
2023/08/23 14:09:10;;;;;;;1.20;0.93;;;;;;;;;;5062956;27;87397;-60
2023/08/23 14:11:40;;;;;;;1.50;0.63;;;;;;;;;;5062856;27;87736;-59
2023/08/23 14:14:08;;;;;;;1.70;0.73;;;;;;;;;;5062156;27;89168;-60
2023/08/23 14:16:37;;;;;;;1.00;0.70;;;;;;;;;;5062222;27;88624;-60
2023/08/23 14:19:06;;;;;;;0.70;0.70;;;;;;;;;;5062830;27;88011;-60
2023/08/23 14:21:36;;;;;;;1.97;0.67;;;;;;;;;;5063180;27;87894;-60
2023/08/23 14:24:06;;;;;;;2.10;1.10;;;;;;;;;;5063730;27;87436;-60
2023/08/23 14:26:35;;;;;;;1.27;1.00;;;;;;;;;;5062479;27;88432;-60
2023/08/23 14:29:05;;;;;;;1.33;1.00;;;;;;;;;;5062374;27;88112;-59
2023/08/23 14:31:34;;;;;;;1.27;1.10;;;;;;;;;;5063162;27;89053;-59
2023/08/23 14:34:02;;;;;;;2.00;1.57;;;;;;;;;;5061821;27;87663;-59
2023/08/23 14:36:30;;;;;;;2.17;1.47;;;;;;;;;;5062802;27;88644;-59
2023/08/23 14:39:01;;;;;;;1.97;1.77;;;;;;;;;;5062035;27;88893;-59
2023/08/23 14:41:29;;;;;;;2.27;2.03;;;;;;;;;;5062119;27;89767;-59
2023/08/23 14:43:58;;;;;;;2.60;2.37;;;;;;;;;;5060988;27;87590;-60
2023/08/23 14:46:26;;;;;;;2.60;2.30;;;;;;;;;;5063317;27;89706;-60
2023/08/23 14:48:56;;;;;;;3.17;2.77;;;;;;;;;;5062686;27;89296;-59
2023/08/23 14:51:24;;;;;;;5.50;3.87;;;;;;;;;;5062371;27;87510;-59
2023/08/23 14:53:53;;;;;;;8.67;3.63;;;;;;;;;;5062874;27;87373;-59